createdAt,value
2018-02-20T00:00:07.310Z,76.86
2018-02-20T00:02:35.599Z,76.94
2018-02-20T00:05:03.894Z,76.79
2018-02-20T00:07:32.958Z,77.10
2018-02-20T00:10:01.328Z,77.23
2018-02-20T00:12:29.663Z,77.36
2018-02-20T00:14:57.949Z,77.51
2018-02-20T00:17:26.272Z,77.30
2018-02-20T00:19:54.570Z,77.58
2018-02-20T00:22:23.660Z,77.72
2018-02-20T00:24:51.934Z,77.56
2018-02-20T00:27:21.026Z,77.71
2018-02-20T00:29:49.323Z,77.74
2018-02-20T00:32:18.401Z,77.66
2018-02-20T00:34:47.460Z,77.99
2018-02-20T00:37:15.781Z,77.86
2018-02-20T00:39:44.878Z,77.97
2018-02-20T00:42:13.924Z,78.29
2018-02-20T00:44:42.977Z,78.46
2018-02-20T00:47:11.274Z,78.41
2018-02-20T00:49:39.569Z,78.54
2018-02-20T00:52:07.866Z,78.81
2018-02-20T00:54:36.159Z,79.00
2018-02-20T00:57:05.221Z,79.27
2018-02-20T00:59:33.532Z,79.41
2018-02-20T01:02:02.614Z,79.75
2018-02-20T01:04:30.900Z,79.87
2018-02-20T01:06:59.234Z,80.20
2018-02-20T01:09:27.546Z,80.20
2018-02-20T01:11:55.844Z,80.44
2018-02-20T01:14:24.890Z,80.42
2018-02-20T01:16:53.230Z,80.50
2018-02-20T01:19:21.525Z,80.62
2018-02-20T01:21:49.831Z,80.40
2018-02-20T01:24:18.135Z,80.59
2018-02-20T01:26:47.190Z,80.43
2018-02-20T01:29:15.486Z,80.48
2018-02-20T01:31:43.803Z,80.50
2018-02-20T01:34:12.115Z,80.51
2018-02-20T01:36:40.433Z,80.67
2018-02-20T01:39:09.500Z,80.56
2018-02-20T01:41:37.792Z,80.75
2018-02-20T01:44:06.079Z,80.40
2018-02-20T01:46:34.378Z,80.58
2018-02-20T01:49:02.676Z,80.80
2018-02-20T01:51:30.981Z,80.87
2018-02-20T01:53:59.309Z,81.22
2018-02-20T01:56:27.626Z,81.34
2018-02-20T01:58:55.962Z,81.63
2018-02-20T02:01:25.039Z,81.54
2018-02-20T02:03:53.358Z,81.64
2018-02-20T02:06:21.660Z,81.78
2018-02-20T02:08:49.972Z,81.63
2018-02-20T02:11:19.027Z,81.72
2018-02-20T02:13:47.322Z,81.30
2018-02-20T02:16:15.634Z,81.59
2018-02-20T02:18:43.920Z,81.64
2018-02-20T02:21:12.254Z,81.75
2018-02-20T02:23:40.549Z,81.82
2018-02-20T02:26:09.622Z,81.93
2018-02-20T02:28:37.909Z,81.90
2018-02-20T02:31:06.229Z,82.25
2018-02-20T02:33:34.517Z,82.39
2018-02-20T02:36:02.813Z,82.37
2018-02-20T02:38:31.105Z,82.68
2018-02-20T02:40:59.388Z,82.57
2018-02-20T02:43:27.716Z,82.48
2018-02-20T02:45:55.988Z,82.40
2018-02-20T02:48:24.284Z,82.62
2018-02-20T02:50:52.590Z,82.93
2018-02-20T02:53:20.891Z,83.17
2018-02-20T02:55:49.961Z,83.29
2018-02-20T02:58:18.252Z,83.12
2018-02-20T03:00:47.303Z,83.62
2018-02-20T03:03:15.634Z,83.75
2018-02-20T03:05:44.687Z,84.32
2018-02-20T03:10:47.517Z,84.81
2018-02-20T03:13:16.583Z,85.16
2018-02-20T03:15:44.883Z,84.97
2018-02-20T03:18:14.032Z,85.17
2018-02-20T03:20:42.327Z,85.48
2018-02-20T03:23:10.620Z,85.46
2018-02-20T03:25:38.945Z,85.10
2018-02-20T03:28:07.229Z,85.59
2018-02-20T03:30:35.558Z,86.27
2018-02-20T03:33:03.839Z,86.46
2018-02-20T03:35:32.143Z,86.47
2018-02-20T03:38:00.450Z,86.68
2018-02-20T03:40:28.719Z,86.77
2018-02-20T03:42:57.019Z,86.68
2018-02-20T03:45:25.319Z,86.75
2018-02-20T03:47:53.628Z,86.73
2018-02-20T03:50:21.907Z,86.98
2018-02-20T03:52:50.220Z,87.11
2018-02-20T03:55:18.529Z,87.39
2018-02-20T03:57:47.584Z,87.71
2018-02-20T04:00:15.886Z,87.58
2018-02-20T04:02:44.226Z,87.41
2018-02-20T04:05:12.519Z,87.05
2018-02-20T04:07:40.820Z,86.02
2018-02-20T04:10:09.141Z,85.19
2018-02-20T04:12:37.465Z,84.70
2018-02-20T04:15:05.784Z,84.82
2018-02-20T04:17:34.848Z,84.76
2018-02-20T04:20:03.182Z,84.52
2018-02-20T04:22:31.495Z,84.57
2018-02-20T04:24:59.831Z,84.74
2018-02-20T04:27:28.147Z,84.51
2018-02-20T04:29:56.448Z,84.43
2018-02-20T04:32:24.742Z,84.56
2018-02-20T04:34:53.048Z,84.71
2018-02-20T04:37:21.386Z,84.97
2018-02-20T04:39:49.708Z,85.25
2018-02-20T04:42:18.017Z,85.50
2018-02-20T04:44:46.354Z,85.68
2018-02-20T04:47:14.707Z,86.06
2018-02-20T04:49:43.019Z,86.34
2018-02-20T04:52:11.326Z,86.70
2018-02-20T04:54:39.633Z,86.78
2018-02-20T04:57:07.981Z,86.85
2018-02-20T04:59:36.340Z,87.13
2018-02-20T05:02:04.647Z,87.26
2018-02-20T05:04:32.946Z,87.27
2018-02-20T05:07:01.247Z,87.08
2018-02-20T05:09:29.539Z,86.94
2018-02-20T05:11:57.890Z,86.73
2018-02-20T05:14:26.175Z,86.74
2018-02-20T05:16:54.473Z,86.68
2018-02-20T05:19:22.751Z,86.78
2018-02-20T05:21:51.070Z,86.86
2018-02-20T05:24:20.155Z,86.93
2018-02-20T05:26:49.231Z,86.83
2018-02-20T05:29:17.591Z,86.84
2018-02-20T05:31:45.925Z,86.90
2018-02-20T05:34:14.246Z,86.77
2018-02-20T05:36:42.621Z,86.73
2018-02-20T05:39:10.932Z,87.05
2018-02-20T05:41:39.251Z,87.33
2018-02-20T05:44:07.567Z,87.47
2018-02-20T05:46:35.890Z,87.46
2018-02-20T05:49:04.206Z,87.36
2018-02-20T05:51:32.512Z,87.64
2018-02-20T05:54:00.846Z,87.78
2018-02-20T05:56:29.117Z,87.71
2018-02-20T05:58:57.448Z,87.84
2018-02-20T06:01:26.547Z,87.96
2018-02-20T06:03:55.610Z,88.06
2018-02-20T06:06:23.923Z,88.12
2018-02-20T06:08:53.015Z,88.01
2018-02-20T06:11:22.127Z,88.08
2018-02-20T06:13:50.442Z,88.44
2018-02-20T06:16:18.767Z,88.64
2018-02-20T06:18:47.830Z,89.04
2018-02-20T06:21:16.135Z,89.20
2018-02-20T06:23:45.182Z,89.30
2018-02-20T06:26:13.466Z,89.32
2018-02-20T06:28:41.764Z,89.41
2018-02-20T06:31:10.065Z,89.55
2018-02-20T06:33:39.127Z,89.57
2018-02-20T06:36:07.473Z,89.59
2018-02-20T06:38:35.766Z,89.45
2018-02-20T06:41:04.056Z,89.50
2018-02-20T06:43:32.333Z,89.43
2018-02-20T06:46:00.617Z,89.46
2018-02-20T06:48:28.900Z,89.51
2018-02-20T06:50:57.214Z,89.61
2018-02-20T06:53:25.516Z,89.87
2018-02-20T06:55:53.841Z,89.88
2018-02-20T06:58:22.165Z,89.96
2018-02-20T07:00:50.458Z,89.99
2018-02-20T07:03:18.758Z,89.73
2018-02-20T07:05:47.084Z,89.71
2018-02-20T07:08:15.359Z,89.60
2018-02-20T07:10:43.690Z,89.57
2018-02-20T07:13:11.971Z,89.34
2018-02-20T07:15:41.050Z,89.11
2018-02-20T07:18:09.319Z,88.67
2018-02-20T07:20:37.627Z,88.29
2018-02-20T07:23:06.699Z,88.13
2018-02-20T07:25:35.012Z,88.05
2018-02-20T07:28:03.306Z,88.12
2018-02-20T07:30:31.616Z,87.67
2018-02-20T07:32:59.919Z,87.19
2018-02-20T07:35:28.204Z,87.05
2018-02-20T07:37:57.262Z,87.27
2018-02-20T07:40:25.583Z,86.67
2018-02-20T07:42:53.859Z,86.40
2018-02-20T07:45:22.288Z,85.82
2018-02-20T07:47:50.629Z,85.92
2018-02-20T07:50:18.935Z,86.27
2018-02-20T07:52:47.255Z,85.74
2018-02-20T07:55:15.582Z,86.02
2018-02-20T07:57:43.893Z,85.47
2018-02-20T08:00:12.225Z,84.87
2018-02-20T08:02:40.543Z,84.71
2018-02-20T08:05:08.839Z,84.48
2018-02-20T08:07:37.187Z,84.54
2018-02-20T08:10:05.490Z,83.59
2018-02-20T08:12:34.545Z,83.79
2018-02-20T08:15:02.823Z,83.73
2018-02-20T08:17:31.155Z,83.34
2018-02-20T08:19:59.408Z,83.72
2018-02-20T08:22:28.462Z,82.88
2018-02-20T08:24:56.753Z,82.97
2018-02-20T08:27:25.036Z,82.33
2018-02-20T08:29:53.318Z,82.30
2018-02-20T08:32:21.606Z,83.16
2018-02-20T08:34:50.672Z,83.85
2018-02-20T08:37:18.944Z,82.55
2018-02-20T08:39:47.219Z,82.22
2018-02-20T08:42:15.486Z,82.61
2018-02-20T08:44:43.763Z,82.32
2018-02-20T08:47:12.045Z,82.71
2018-02-20T08:49:40.350Z,82.28
2018-02-20T08:52:08.639Z,82.34
2018-02-20T08:54:37.700Z,80.93
2018-02-20T08:57:05.981Z,80.87
2018-02-20T08:59:34.290Z,82.74
2018-02-20T09:02:03.345Z,82.71
2018-02-20T09:04:31.640Z,82.60
2018-02-20T09:06:59.908Z,82.22
2018-02-20T09:09:28.227Z,83.38
2018-02-20T09:11:56.553Z,83.07
2018-02-20T09:14:24.870Z,83.48
2018-02-20T09:16:53.201Z,82.26
2018-02-20T09:19:21.510Z,80.85
2018-02-20T09:21:50.587Z,80.31
2018-02-20T09:24:18.917Z,80.13
2018-02-20T09:26:47.230Z,79.44
2018-02-20T09:29:15.516Z,79.49
2018-02-20T09:31:43.796Z,80.17
2018-02-20T09:34:12.068Z,79.89
2018-02-20T09:36:40.372Z,79.69
2018-02-20T09:39:08.653Z,79.55
2018-02-20T09:41:37.682Z,80.05
2018-02-20T09:44:05.942Z,79.48
2018-02-20T09:46:34.221Z,79.33
2018-02-20T09:49:02.509Z,78.33
2018-02-20T09:51:30.796Z,77.78
2018-02-20T09:53:59.071Z,78.29
2018-02-20T09:56:27.362Z,77.12
2018-02-20T09:58:56.473Z,76.90
2018-02-20T10:01:24.741Z,77.74
2018-02-20T10:03:53.037Z,78.47
2018-02-20T10:06:22.089Z,77.43
2018-02-20T10:08:50.388Z,77.29
2018-02-20T10:11:18.667Z,76.33
2018-02-20T10:13:46.979Z,75.34
2018-02-20T10:16:15.282Z,75.77
2018-02-20T10:18:43.555Z,74.77
2018-02-20T10:21:11.837Z,74.69
2018-02-20T10:23:40.113Z,75.06
2018-02-20T10:26:08.384Z,73.57
2018-02-20T10:28:36.676Z,72.73
2018-02-20T10:31:04.945Z,74.22
2018-02-20T10:33:33.240Z,72.93
2018-02-20T10:36:01.530Z,71.00
2018-02-20T10:38:29.793Z,70.13
2018-02-20T10:40:58.832Z,69.25
2018-02-20T10:43:27.874Z,68.79
2018-02-20T10:45:56.146Z,69.35
2018-02-20T10:48:24.425Z,70.08
2018-02-20T10:50:52.704Z,68.64
2018-02-20T10:53:20.994Z,70.06
2018-02-20T10:55:49.278Z,70.31
2018-02-20T10:58:17.571Z,69.61
2018-02-20T11:00:46.613Z,70.34
2018-02-20T11:03:14.902Z,69.92
2018-02-20T11:05:43.175Z,69.92
2018-02-20T11:08:11.445Z,71.10
2018-02-20T11:10:39.718Z,69.11
2018-02-20T11:13:07.983Z,69.43
2018-02-20T11:15:36.258Z,70.39
2018-02-20T11:18:04.522Z,69.34
2018-02-20T11:20:32.799Z,70.09
2018-02-20T11:23:01.075Z,69.81
2018-02-20T11:25:29.357Z,68.66
2018-02-20T11:27:57.646Z,69.21
2018-02-20T11:30:25.922Z,66.90
2018-02-20T11:32:54.198Z,67.46
2018-02-20T11:35:22.469Z,66.79
2018-02-20T11:37:50.736Z,65.96
2018-02-20T11:40:18.998Z,64.62
2018-02-20T11:42:47.250Z,64.99
2018-02-20T11:45:15.540Z,65.61
2018-02-20T11:47:43.800Z,66.54
2018-02-20T11:50:12.832Z,67.33
2018-02-20T11:52:41.112Z,67.20
2018-02-20T11:55:09.370Z,66.26
2018-02-20T11:57:37.650Z,67.12
2018-02-20T12:00:05.920Z,66.42
2018-02-20T12:02:34.195Z,67.29
2018-02-20T12:05:02.473Z,65.49
2018-02-20T12:07:30.744Z,65.32
2018-02-20T12:09:59.059Z,65.52
2018-02-20T12:12:27.342Z,64.99
2018-02-20T12:14:55.633Z,64.44
2018-02-20T12:17:23.924Z,63.43
2018-02-20T12:19:52.199Z,64.63
2018-02-20T12:22:20.484Z,64.77
2018-02-20T12:24:49.512Z,65.42
2018-02-20T12:27:17.788Z,64.49
2018-02-20T12:29:46.074Z,64.91
2018-02-20T12:32:14.334Z,64.79
2018-02-20T12:34:42.614Z,64.63
2018-02-20T12:37:10.875Z,63.58
2018-02-20T12:39:39.154Z,63.80
2018-02-20T12:42:07.425Z,62.50
2018-02-20T12:44:36.454Z,63.63
2018-02-20T12:47:04.719Z,63.18
2018-02-20T12:49:32.993Z,62.29
2018-02-20T12:52:01.275Z,61.59
2018-02-20T12:54:29.557Z,63.40
2018-02-20T12:56:57.832Z,63.07
2018-02-20T12:59:26.097Z,64.40
2018-02-20T13:01:54.363Z,64.24
2018-02-20T13:04:22.634Z,64.09
2018-02-20T13:06:50.909Z,64.29
2018-02-20T13:09:19.187Z,63.83
2018-02-20T13:11:47.471Z,64.61
2018-02-20T13:14:15.745Z,63.89
2018-02-20T13:16:44.011Z,65.04
2018-02-20T13:19:12.280Z,64.99
2018-02-20T13:21:40.554Z,64.82
2018-02-20T13:24:08.850Z,63.78
2018-02-20T13:26:37.127Z,64.42
2018-02-20T13:29:05.386Z,64.64
2018-02-20T13:31:33.658Z,65.04
2018-02-20T13:34:01.935Z,64.60
2018-02-20T13:36:30.212Z,64.38
2018-02-20T13:38:58.470Z,64.43
2018-02-20T13:41:27.514Z,64.74
2018-02-20T13:43:55.772Z,64.40
2018-02-20T13:46:24.047Z,65.36
2018-02-20T13:48:52.310Z,70.66
2018-02-20T13:51:20.589Z,67.11
2018-02-20T13:53:48.862Z,67.92
2018-02-20T13:56:17.173Z,66.33
2018-02-20T13:58:45.448Z,67.57
2018-02-20T14:01:13.716Z,67.86
2018-02-20T14:03:41.997Z,68.13
2018-02-20T14:06:10.265Z,68.46
2018-02-20T14:08:38.548Z,67.21
2018-02-20T14:11:06.825Z,66.31
2018-02-20T14:13:35.101Z,66.97
2018-02-20T14:16:03.371Z,67.77
2018-02-20T14:18:31.644Z,67.99
2018-02-20T14:20:59.903Z,67.87
2018-02-20T14:23:28.183Z,67.22
2018-02-20T14:25:56.453Z,67.89
2018-02-20T14:28:24.734Z,66.71
2018-02-20T14:30:53.007Z,67.70
2018-02-20T14:33:21.284Z,67.56
2018-02-20T14:35:49.550Z,67.36
2018-02-20T14:38:17.834Z,66.76
2018-02-20T14:40:46.082Z,69.19
2018-02-20T14:43:15.128Z,68.05
2018-02-20T14:45:43.389Z,67.66
2018-02-20T14:48:11.672Z,67.67
2018-02-20T14:50:39.937Z,67.49
2018-02-20T14:53:09.002Z,69.46
2018-02-20T14:55:38.048Z,69.34
2018-02-20T14:58:07.131Z,68.63
2018-02-20T15:00:35.415Z,68.47
2018-02-20T15:03:03.681Z,68.46
2018-02-20T15:05:31.956Z,68.62
2018-02-20T15:08:00.220Z,68.25
2018-02-20T15:10:28.497Z,68.57
2018-02-20T15:12:56.814Z,68.84
2018-02-20T15:15:25.100Z,67.66
2018-02-20T15:17:53.376Z,67.12
2018-02-20T15:20:21.665Z,68.16
2018-02-20T15:22:50.703Z,67.75
2018-02-20T15:25:18.983Z,68.27
2018-02-20T15:27:47.238Z,68.12
2018-02-20T15:30:15.523Z,66.62
2018-02-20T15:32:43.794Z,68.15
2018-02-20T15:35:12.081Z,69.00
2018-02-20T15:37:40.342Z,67.51
2018-02-20T15:40:08.626Z,67.80
2018-02-20T15:42:36.898Z,69.49
2018-02-20T15:45:05.219Z,68.63
2018-02-20T15:47:33.493Z,68.81
2018-02-20T15:50:01.780Z,67.96
2018-02-20T15:52:30.047Z,67.82
2018-02-20T15:54:58.322Z,67.40
2018-02-20T15:57:26.599Z,67.02
2018-02-20T15:59:54.890Z,67.04
2018-02-20T16:02:23.148Z,66.39
2018-02-20T16:04:51.435Z,66.29
2018-02-20T16:07:19.721Z,66.06
2018-02-20T16:09:47.996Z,66.96
2018-02-20T16:12:16.315Z,66.61
2018-02-20T16:14:44.591Z,66.83
2018-02-20T16:17:12.888Z,66.83
2018-02-20T16:19:41.178Z,66.73
2018-02-20T16:22:09.475Z,66.54
2018-02-20T16:24:37.762Z,66.67
2018-02-20T16:27:06.812Z,66.77
2018-02-20T16:29:35.099Z,66.93
2018-02-20T16:32:03.401Z,67.28
2018-02-20T16:34:31.678Z,66.80
2018-02-20T16:36:59.975Z,66.98
2018-02-20T16:39:29.014Z,67.02
2018-02-20T16:41:57.293Z,66.70
2018-02-20T16:44:25.604Z,67.00
2018-02-20T16:46:54.655Z,67.11
2018-02-20T16:49:22.945Z,67.17
2018-02-20T16:51:51.232Z,67.43
2018-02-20T16:54:19.540Z,67.28
2018-02-20T16:56:48.606Z,67.04
2018-02-20T16:59:16.905Z,66.79
2018-02-20T17:01:45.944Z,66.50
2018-02-20T17:04:14.222Z,65.98
2018-02-20T17:06:42.509Z,66.08
2018-02-20T17:09:10.793Z,66.27
2018-02-20T17:11:39.073Z,66.74
2018-02-20T17:14:07.359Z,66.56
2018-02-20T17:16:35.639Z,66.92
2018-02-20T17:19:03.931Z,67.18
2018-02-20T17:21:33.047Z,67.77
2018-02-20T17:24:01.273Z,67.93
2018-02-20T17:26:29.554Z,68.38
2018-02-20T17:28:57.853Z,68.10
2018-02-20T17:31:26.903Z,68.30
2018-02-20T17:33:55.195Z,68.35
2018-02-20T17:36:23.489Z,68.64
2018-02-20T17:38:51.778Z,68.95
2018-02-20T17:41:20.816Z,69.08
2018-02-20T17:43:49.187Z,69.27
2018-02-20T17:46:17.482Z,69.73
2018-02-20T17:48:45.754Z,69.86
2018-02-20T17:51:14.036Z,70.13
2018-02-20T17:53:42.310Z,69.81
2018-02-20T17:56:10.623Z,69.52
2018-02-20T17:58:38.887Z,69.53
2018-02-20T18:01:07.177Z,69.77
2018-02-20T18:03:36.225Z,69.71
2018-02-20T18:06:04.523Z,70.04
2018-02-20T18:08:32.816Z,70.10
2018-02-20T18:11:01.886Z,70.17
2018-02-20T18:13:30.181Z,70.32
2018-02-20T18:15:58.490Z,70.86
2018-02-20T18:18:26.784Z,71.03
2018-02-20T18:20:55.079Z,71.16
2018-02-20T18:23:23.378Z,71.38
2018-02-20T18:25:51.678Z,71.53
2018-02-20T18:28:20.735Z,71.51
2018-02-20T18:30:49.022Z,71.39
2018-02-20T18:33:17.331Z,71.28
2018-02-20T18:35:46.373Z,71.25
2018-02-20T18:38:14.653Z,71.51
2018-02-20T18:40:42.926Z,71.70
2018-02-20T18:43:11.197Z,71.36
2018-02-20T18:45:39.470Z,70.88
2018-02-20T18:48:07.769Z,70.91
2018-02-20T18:50:36.047Z,70.55
2018-02-20T18:53:04.333Z,70.52
2018-02-20T18:55:32.629Z,71.12
2018-02-20T18:58:01.683Z,71.00
2018-02-20T19:00:29.956Z,70.71
2018-02-20T19:02:58.237Z,70.32
2018-02-20T19:05:26.513Z,70.26
2018-02-20T19:07:54.799Z,70.68
2018-02-20T19:10:23.085Z,70.90
2018-02-20T19:12:51.368Z,70.48
2018-02-20T19:15:19.641Z,70.67
2018-02-20T19:17:47.919Z,70.66
2018-02-20T19:20:16.217Z,71.22
2018-02-20T19:22:45.271Z,70.69
2018-02-20T19:25:13.553Z,70.01
2018-02-20T19:27:41.852Z,69.87
2018-02-20T19:30:10.897Z,69.46
2018-02-20T19:32:39.213Z,70.19
2018-02-20T19:35:07.476Z,69.87
2018-02-20T19:37:35.772Z,70.26
2018-02-20T19:40:04.071Z,70.74
2018-02-20T19:42:32.319Z,70.22
2018-02-20T19:45:00.595Z,70.12
2018-02-20T19:47:28.887Z,69.88
2018-02-20T19:49:57.943Z,70.25
2018-02-20T19:52:26.216Z,70.17
2018-02-20T19:54:54.520Z,70.21
2018-02-20T19:57:22.799Z,70.58
2018-02-20T19:59:51.091Z,70.80
2018-02-20T20:02:20.129Z,70.92
2018-02-20T20:04:48.426Z,70.62
2018-02-20T20:07:16.723Z,71.07
2018-02-20T20:09:45.766Z,71.11
2018-02-20T20:12:14.824Z,70.96
2018-02-20T20:14:43.105Z,71.16
2018-02-20T20:17:12.143Z,71.49
2018-02-20T20:19:40.431Z,71.83
2018-02-20T20:22:08.721Z,71.98
2018-02-20T20:24:37.830Z,72.41
2018-02-20T20:27:06.058Z,72.71
2018-02-20T20:29:34.346Z,72.92
2018-02-20T20:32:02.631Z,73.13
2018-02-20T20:34:30.918Z,73.20
2018-02-20T20:36:59.209Z,73.43
2018-02-20T20:39:28.237Z,73.67
2018-02-20T20:41:56.528Z,74.03
2018-02-20T20:44:24.799Z,74.16
2018-02-20T20:46:53.081Z,73.79
2018-02-20T20:49:21.364Z,74.01
2018-02-20T20:51:49.651Z,74.12
2018-02-20T20:54:17.947Z,74.09
2018-02-20T20:56:46.265Z,73.97
2018-02-20T20:59:14.557Z,74.29
2018-02-20T21:01:42.838Z,74.03
2018-02-20T21:04:11.111Z,74.21
2018-02-20T21:06:39.393Z,74.67
2018-02-20T21:09:07.659Z,74.28
2018-02-20T21:11:35.950Z,74.56
2018-02-20T21:14:04.224Z,73.81
2018-02-20T21:16:32.516Z,73.80
2018-02-20T21:19:00.807Z,74.14
2018-02-20T21:21:29.128Z,73.70
2018-02-20T21:23:57.353Z,73.74
2018-02-20T21:26:25.661Z,73.71
2018-02-20T21:28:53.945Z,73.52
2018-02-20T21:31:22.225Z,73.63
2018-02-20T21:33:50.525Z,73.65
2018-02-20T21:36:18.803Z,73.60
2018-02-20T21:38:47.098Z,73.96
2018-02-20T21:41:15.366Z,74.33
2018-02-20T21:43:43.682Z,74.50
2018-02-20T21:46:11.950Z,74.77
2018-02-20T21:48:40.269Z,74.43
2018-02-20T21:51:08.543Z,74.42
2018-02-20T21:53:36.882Z,74.39
2018-02-20T21:56:05.183Z,74.05
2018-02-20T21:58:34.247Z,74.20
2018-02-20T22:01:02.614Z,73.83
2018-02-20T22:03:30.914Z,73.85
2018-02-20T22:05:59.984Z,73.81
2018-02-20T22:08:29.806Z,73.93
2018-02-20T22:10:58.107Z,74.13
2018-02-20T22:13:27.185Z,74.17
2018-02-20T22:15:55.561Z,74.10
2018-02-20T22:18:23.883Z,74.32
2018-02-20T22:20:52.287Z,74.37
2018-02-20T22:23:20.630Z,74.19
2018-02-20T22:25:49.000Z,74.18
2018-02-20T22:28:17.303Z,74.24
2018-02-20T22:30:45.626Z,74.21
2018-02-20T22:33:13.983Z,74.38
2018-02-20T22:35:42.314Z,74.33
2018-02-20T22:38:10.606Z,74.58
2018-02-20T22:40:38.966Z,74.62
2018-02-20T22:43:07.277Z,74.66
2018-02-20T22:45:35.593Z,75.10
2018-02-20T22:48:03.936Z,74.77
2018-02-20T22:50:32.243Z,74.87
2018-02-20T22:53:00.606Z,75.06
2018-02-20T22:55:28.936Z,75.02
2018-02-20T22:57:57.331Z,75.11
2018-02-20T23:00:25.639Z,75.39
2018-02-20T23:02:53.973Z,75.36
2018-02-20T23:05:22.279Z,75.68
2018-02-20T23:07:50.563Z,75.61
2018-02-20T23:10:18.958Z,75.92
2018-02-20T23:12:47.260Z,75.76
2018-02-20T23:15:16.376Z,76.06
2018-02-20T23:17:44.677Z,76.08
2018-02-20T23:20:12.991Z,76.31
2018-02-20T23:22:42.091Z,76.28
2018-02-20T23:25:11.180Z,76.49
2018-02-20T23:27:39.519Z,76.42
2018-02-20T23:30:07.823Z,76.67
2018-02-20T23:32:36.155Z,76.37
2018-02-20T23:35:04.495Z,76.32
2018-02-20T23:37:33.649Z,76.26
2018-02-20T23:40:02.695Z,76.45
2018-02-20T23:42:31.968Z,76.53
2018-02-20T23:45:00.379Z,76.42
2018-02-20T23:47:28.795Z,76.39
2018-02-20T23:49:57.131Z,76.46
2018-02-20T23:52:26.261Z,76.42
2018-02-20T23:54:54.582Z,76.07
2018-02-20T23:57:22.883Z,76.20
2018-02-20T23:59:51.149Z,76.26
